Terminal Aerodrome Forecast
Issued by NWS

Home | Current Version | Previous Version | Graphics & Text | Print | Product List | Glossary On
Versions: 1 2 3 4 5 6 7 8 9 10 11 12 13 14 15 16 17 18 19 20 21 22
000
FTUS43 KICT 300829 AAA
TAFHUT
TAF AMD
KHUT 300829Z 3008/3106 07008KT P6SM -TSRA BKN050CB
     FM301200 11006KT P6SM VCTS BKN050CB
     FM301900 14005KT P6SM FEW035 SCT250=

USA.gov is the U.S. government's official web portal to all federal, state and local government web resources and services.